sensor_id;sensor_type;location;lat;lon;timestamp;P1;durP1;ratioP1;P2;durP2;ratioP2
40847;SDS011;26570;50.962;5.340;2024-01-10T00:00:55;12.70;;;2.25;;
40847;SDS011;26570;50.962;5.340;2024-01-10T00:03:59;9.38;;;2.53;;
40847;SDS011;26570;50.962;5.340;2024-01-10T00:07:11;7.10;;;2.28;;
40847;SDS011;26570;50.962;5.340;2024-01-10T00:09:58;15.13;;;2.70;;
40847;SDS011;26570;50.962;5.340;2024-01-10T00:12:54;10.75;;;3.45;;
40847;SDS011;26570;50.962;5.340;2024-01-10T00:16:06;10.80;;;3.08;;
40847;SDS011;26570;50.962;5.340;2024-01-10T00:19:18;10.00;;;3.08;;
40847;SDS011;26570;50.962;5.340;2024-01-10T00:22:21;11.02;;;1.98;;
40847;SDS011;26570;50.962;5.340;2024-01-10T00:25:29;9.30;;;2.42;;
40847;SDS011;26570;50.962;5.340;2024-01-10T00:28:27;10.02;;;3.08;;
40847;SDS011;26570;50.962;5.340;2024-01-10T00:31:22;11.15;;;3.17;;
40847;SDS011;26570;50.962;5.340;2024-01-10T00:34:37;10.07;;;2.72;;
40847;SDS011;26570;50.962;5.340;2024-01-10T00:37:57;10.90;;;2.95;;
40847;SDS011;26570;50.962;5.340;2024-01-10T00:41:06;8.55;;;2.47;;
40847;SDS011;26570;50.962;5.340;2024-01-10T00:44:19;9.95;;;2.28;;
40847;SDS011;26570;50.962;5.340;2024-01-10T00:47:10;8.60;;;2.35;;
40847;SDS011;26570;50.962;5.340;2024-01-10T00:50:22;6.93;;;2.10;;
40847;SDS011;26570;50.962;5.340;2024-01-10T00:53:49;13.07;;;2.75;;
40847;SDS011;26570;50.962;5.340;2024-01-10T00:56:38;14.93;;;3.28;;
40847;SDS011;26570;50.962;5.340;2024-01-10T00:59:41;9.55;;;3.38;;
40847;SDS011;26570;50.962;5.340;2024-01-10T01:03:06;10.43;;;2.70;;
40847;SDS011;26570;50.962;5.340;2024-01-10T01:06:15;11.52;;;2.03;;
40847;SDS011;26570;50.962;5.340;2024-01-10T01:09:30;10.85;;;3.58;;
40847;SDS011;26570;50.962;5.340;2024-01-10T01:12:43;8.27;;;2.40;;
40847;SDS011;26570;50.962;5.340;2024-01-10T01:16:03;11.07;;;2.03;;
40847;SDS011;26570;50.962;5.340;2024-01-10T01:19:19;6.65;;;2.63;;
40847;SDS011;26570;50.962;5.340;2024-01-10T01:22:12;11.40;;;2.35;;
40847;SDS011;26570;50.962;5.340;2024-01-10T01:25:09;15.15;;;2.80;;
40847;SDS011;26570;50.962;5.340;2024-01-10T01:28:37;10.52;;;3.22;;
40847;SDS011;26570;50.962;5.340;2024-01-10T01:31:48;9.35;;;3.13;;
40847;SDS011;26570;50.962;5.340;2024-01-10T01:34:57;13.27;;;3.30;;
40847;SDS011;26570;50.962;5.340;2024-01-10T01:37:55;17.27;;;3.17;;
40847;SDS011;26570;50.962;5.340;2024-01-10T01:41:09;10.73;;;3.10;;
40847;SDS011;26570;50.962;5.340;2024-01-10T01:44:47;9.55;;;2.40;;
40847;SDS011;26570;50.962;5.340;2024-01-10T01:48:03;10.50;;;3.53;;
40847;SDS011;26570;50.962;5.340;2024-01-10T01:50:59;9.32;;;2.08;;
40847;SDS011;26570;50.962;5.340;2024-01-10T01:53:57;11.80;;;3.65;;
40847;SDS011;26570;50.962;5.340;2024-01-10T01:56:55;13.10;;;3.40;;
40847;SDS011;26570;50.962;5.340;2024-01-10T01:59:55;8.90;;;2.42;;
40847;SDS011;26570;50.962;5.340;2024-01-10T02:02:45;10.43;;;2.85;;
40847;SDS011;26570;50.962;5.340;2024-01-10T02:05:37;14.48;;;4.00;;
40847;SDS011;26570;50.962;5.340;2024-01-10T02:08:26;12.75;;;3.00;;
40847;SDS011;26570;50.962;5.340;2024-01-10T02:11:45;12.60;;;3.50;;
40847;SDS011;26570;50.962;5.340;2024-01-10T02:14:32;15.00;;;3.15;;
40847;SDS011;26570;50.962;5.340;2024-01-10T02:17:19;12.18;;;3.40;;
40847;SDS011;26570;50.962;5.340;2024-01-10T02:20:38;11.82;;;3.30;;
40847;SDS011;26570;50.962;5.340;2024-01-10T02:24:00;11.43;;;2.70;;
40847;SDS011;26570;50.962;5.340;2024-01-10T02:26:49;9.13;;;3.25;;
40847;SDS011;26570;50.962;5.340;2024-01-10T02:30:16;11.80;;;2.70;;
40847;SDS011;26570;50.962;5.340;2024-01-10T02:33:34;12.55;;;3.45;;
40847;SDS011;26570;50.962;5.340;2024-01-10T02:37:00;11.18;;;3.42;;
40847;SDS011;26570;50.962;5.340;2024-01-10T02:39:49;13.30;;;3.78;;
40847;SDS011;26570;50.962;5.340;2024-01-10T02:43:01;10.85;;;3.38;;
40847;SDS011;26570;50.962;5.340;2024-01-10T02:46:11;11.25;;;3.35;;
40847;SDS011;26570;50.962;5.340;2024-01-10T02:49:07;13.15;;;2.83;;
40847;SDS011;26570;50.962;5.340;2024-01-10T02:52:10;13.23;;;3.97;;
40847;SDS011;26570;50.962;5.340;2024-01-10T02:55:24;16.98;;;3.88;;
40847;SDS011;26570;50.962;5.340;2024-01-10T02:58:56;11.02;;;3.70;;
40847;SDS011;26570;50.962;5.340;2024-01-10T03:01:49;15.50;;;3.90;;
40847;SDS011;26570;50.962;5.340;2024-01-10T03:04:37;11.63;;;2.80;;
40847;SDS011;26570;50.962;5.340;2024-01-10T03:07:41;10.68;;;3.58;;
40847;SDS011;26570;50.962;5.340;2024-01-10T03:11:18;10.27;;;2.97;;
40847;SDS011;26570;50.962;5.340;2024-01-10T03:14:15;13.00;;;3.08;;
40847;SDS011;26570;50.962;5.340;2024-01-10T03:17:33;7.57;;;2.55;;
40847;SDS011;26570;50.962;5.340;2024-01-10T03:20:49;20.23;;;4.22;;
40847;SDS011;26570;50.962;5.340;2024-01-10T03:24:02;12.75;;;3.65;;
40847;SDS011;26570;50.962;5.340;2024-01-10T03:26:50;15.95;;;3.38;;
40847;SDS011;26570;50.962;5.340;2024-01-10T03:30:16;12.80;;;3.17;;
40847;SDS011;26570;50.962;5.340;2024-01-10T03:33:08;9.50;;;3.03;;
40847;SDS011;26570;50.962;5.340;2024-01-10T03:36:08;14.02;;;3.53;;
40847;SDS011;26570;50.962;5.340;2024-01-10T03:39:07;13.35;;;3.08;;
40847;SDS011;26570;50.962;5.340;2024-01-10T03:42:04;12.45;;;3.25;;
40847;SDS011;26570;50.962;5.340;2024-01-10T03:45:12;12.15;;;3.38;;
40847;SDS011;26570;50.962;5.340;2024-01-10T03:48:41;12.35;;;3.45;;
40847;SDS011;26570;50.962;5.340;2024-01-10T03:51:42;14.45;;;3.30;;
40847;SDS011;26570;50.962;5.340;2024-01-10T03:54:44;8.15;;;3.03;;
40847;SDS011;26570;50.962;5.340;2024-01-10T04:01:48;11.50;;;2.88;;
40847;SDS011;26570;50.962;5.340;2024-01-10T04:04:37;10.98;;;3.03;;
40847;SDS011;26570;50.962;5.340;2024-01-10T04:07:34;12.13;;;2.83;;
40847;SDS011;26570;50.962;5.340;2024-01-10T04:11:02;12.35;;;3.10;;
40847;SDS011;26570;50.962;5.340;2024-01-10T04:14:02;12.38;;;2.88;;
40847;SDS011;26570;50.962;5.340;2024-01-10T04:17:23;11.80;;;2.95;;
40847;SDS011;26570;50.962;5.340;2024-01-10T04:21:01;9.80;;;1.95;;
40847;SDS011;26570;50.962;5.340;2024-01-10T04:23:54;12.80;;;3.22;;
40847;SDS011;26570;50.962;5.340;2024-01-10T04:26:44;11.43;;;2.45;;
40847;SDS011;26570;50.962;5.340;2024-01-10T04:29:55;12.07;;;2.88;;
40847;SDS011;26570;50.962;5.340;2024-01-10T04:32:49;9.20;;;1.65;;
40847;SDS011;26570;50.962;5.340;2024-01-10T04:36:18;11.38;;;2.70;;
40847;SDS011;26570;50.962;5.340;2024-01-10T04:39:25;10.40;;;2.65;;
40847;SDS011;26570;50.962;5.340;2024-01-10T04:42:44;13.30;;;2.92;;
40847;SDS011;26570;50.962;5.340;2024-01-10T04:45:45;9.05;;;2.22;;
40847;SDS011;26570;50.962;5.340;2024-01-10T04:48:55;10.40;;;3.15;;
40847;SDS011;26570;50.962;5.340;2024-01-10T04:52:05;17.92;;;2.97;;
40847;SDS011;26570;50.962;5.340;2024-01-10T04:54:56;17.83;;;3.38;;
40847;SDS011;26570;50.962;5.340;2024-01-10T04:57:47;16.35;;;3.55;;
40847;SDS011;26570;50.962;5.340;2024-01-10T05:04:23;12.80;;;2.83;;
40847;SDS011;26570;50.962;5.340;2024-01-10T05:07:27;12.23;;;3.03;;
40847;SDS011;26570;50.962;5.340;2024-01-10T05:10:57;8.02;;;1.75;;
40847;SDS011;26570;50.962;5.340;2024-01-10T05:14:10;10.98;;;1.98;;
40847;SDS011;26570;50.962;5.340;2024-01-10T05:17:38;8.90;;;3.05;;
40847;SDS011;26570;50.962;5.340;2024-01-10T05:20:43;11.57;;;3.17;;
40847;SDS011;26570;50.962;5.340;2024-01-10T05:24:04;10.73;;;2.58;;
40847;SDS011;26570;50.962;5.340;2024-01-10T05:27:11;15.82;;;2.60;;
40847;SDS011;26570;50.962;5.340;2024-01-10T05:30:20;17.27;;;4.07;;
40847;SDS011;26570;50.962;5.340;2024-01-10T05:33:34;11.00;;;2.38;;
40847;SDS011;26570;50.962;5.340;2024-01-10T05:36:55;14.15;;;3.25;;
40847;SDS011;26570;50.962;5.340;2024-01-10T05:40:08;8.73;;;3.15;;
40847;SDS011;26570;50.962;5.340;2024-01-10T05:43:35;13.10;;;2.95;;
40847;SDS011;26570;50.962;5.340;2024-01-10T05:46:23;11.48;;;2.70;;
40847;SDS011;26570;50.962;5.340;2024-01-10T05:49:19;13.13;;;2.80;;
40847;SDS011;26570;50.962;5.340;2024-01-10T05:52:08;9.07;;;2.25;;
40847;SDS011;26570;50.962;5.340;2024-01-10T05:55:16;12.85;;;2.50;;
40847;SDS011;26570;50.962;5.340;2024-01-10T05:58:08;9.77;;;2.88;;
40847;SDS011;26570;50.962;5.340;2024-01-10T06:00:55;8.63;;;3.13;;
40847;SDS011;26570;50.962;5.340;2024-01-10T06:03:52;13.75;;;2.35;;
40847;SDS011;26570;50.962;5.340;2024-01-10T06:06:42;10.68;;;2.72;;
40847;SDS011;26570;50.962;5.340;2024-01-10T06:10:13;8.88;;;2.17;;
40847;SDS011;26570;50.962;5.340;2024-01-10T06:13:24;12.98;;;2.33;;
40847;SDS011;26570;50.962;5.340;2024-01-10T06:16:21;17.30;;;3.38;;
40847;SDS011;26570;50.962;5.340;2024-01-10T06:19:11;10.40;;;2.38;;
40847;SDS011;26570;50.962;5.340;2024-01-10T06:22:07;11.68;;;3.25;;
40847;SDS011;26570;50.962;5.340;2024-01-10T06:25:09;10.05;;;2.50;;
40847;SDS011;26570;50.962;5.340;2024-01-10T06:28:34;10.45;;;2.67;;
40847;SDS011;26570;50.962;5.340;2024-01-10T06:32:11;9.32;;;2.60;;
40847;SDS011;26570;50.962;5.340;2024-01-10T06:35:09;8.88;;;3.28;;
40847;SDS011;26570;50.962;5.340;2024-01-10T06:38:34;14.43;;;3.15;;
40847;SDS011;26570;50.962;5.340;2024-01-10T06:42:01;11.80;;;3.75;;
40847;SDS011;26570;50.962;5.340;2024-01-10T06:45:16;11.70;;;2.97;;
40847;SDS011;26570;50.962;5.340;2024-01-10T06:48:21;14.05;;;3.45;;
40847;SDS011;26570;50.962;5.340;2024-01-10T06:51:38;15.80;;;3.17;;
40847;SDS011;26570;50.962;5.340;2024-01-10T06:54:54;10.35;;;2.38;;
40847;SDS011;26570;50.962;5.340;2024-01-10T06:58:01;13.38;;;3.28;;
40847;SDS011;26570;50.962;5.340;2024-01-10T07:00:54;8.57;;;2.83;;
40847;SDS011;26570;50.962;5.340;2024-01-10T07:04:12;11.48;;;2.53;;
40847;SDS011;26570;50.962;5.340;2024-01-10T07:07:31;14.18;;;2.65;;
40847;SDS011;26570;50.962;5.340;2024-01-10T07:10:30;10.57;;;2.95;;
40847;SDS011;26570;50.962;5.340;2024-01-10T07:13:22;9.75;;;2.88;;
40847;SDS011;26570;50.962;5.340;2024-01-10T07:16:18;12.25;;;3.47;;
40847;SDS011;26570;50.962;5.340;2024-01-10T07:19:13;9.32;;;3.38;;
40847;SDS011;26570;50.962;5.340;2024-01-10T07:22:00;12.43;;;3.15;;
40847;SDS011;26570;50.962;5.340;2024-01-10T07:24:53;14.02;;;5.10;;
40847;SDS011;26570;50.962;5.340;2024-01-10T07:28:10;14.25;;;3.53;;
40847;SDS011;26570;50.962;5.340;2024-01-10T07:31:18;12.20;;;2.97;;
40847;SDS011;26570;50.962;5.340;2024-01-10T07:34:20;13.48;;;3.60;;
40847;SDS011;26570;50.962;5.340;2024-01-10T07:37:13;19.70;;;4.53;;
40847;SDS011;26570;50.962;5.340;2024-01-10T07:40:33;10.98;;;3.85;;
40847;SDS011;26570;50.962;5.340;2024-01-10T07:43:56;11.75;;;3.25;;
40847;SDS011;26570;50.962;5.340;2024-01-10T07:47:10;10.15;;;2.75;;
40847;SDS011;26570;50.962;5.340;2024-01-10T07:50:19;16.58;;;4.32;;
40847;SDS011;26570;50.962;5.340;2024-01-10T07:53:40;12.82;;;3.97;;
40847;SDS011;26570;50.962;5.340;2024-01-10T07:56:37;16.05;;;5.38;;
40847;SDS011;26570;50.962;5.340;2024-01-10T07:59:27;15.23;;;4.65;;
40847;SDS011;26570;50.962;5.340;2024-01-10T08:02:29;19.23;;;4.53;;
40847;SDS011;26570;50.962;5.340;2024-01-10T08:05:20;14.85;;;5.03;;
40847;SDS011;26570;50.962;5.340;2024-01-10T08:08:16;14.93;;;4.07;;
40847;SDS011;26570;50.962;5.340;2024-01-10T08:11:08;15.18;;;5.10;;
40847;SDS011;26570;50.962;5.340;2024-01-10T08:14:00;16.38;;;4.43;;
40847;SDS011;26570;50.962;5.340;2024-01-10T08:20:33;21.52;;;5.50;;
40847;SDS011;26570;50.962;5.340;2024-01-10T08:23:19;16.60;;;3.97;;
40847;SDS011;26570;50.962;5.340;2024-01-10T08:26:09;16.10;;;5.43;;
40847;SDS011;26570;50.962;5.340;2024-01-10T08:29:24;11.43;;;4.72;;
40847;SDS011;26570;50.962;5.340;2024-01-10T08:32:24;10.25;;;3.65;;
40847;SDS011;26570;50.962;5.340;2024-01-10T08:35:26;17.17;;;5.53;;
40847;SDS011;26570;50.962;5.340;2024-01-10T08:38:21;21.38;;;5.22;;
40847;SDS011;26570;50.962;5.340;2024-01-10T08:41:19;13.38;;;4.80;;
40847;SDS011;26570;50.962;5.340;2024-01-10T08:44:11;13.07;;;4.40;;
40847;SDS011;26570;50.962;5.340;2024-01-10T08:47:08;13.35;;;4.68;;
40847;SDS011;26570;50.962;5.340;2024-01-10T08:50:30;24.40;;;4.88;;
40847;SDS011;26570;50.962;5.340;2024-01-10T08:53:28;12.82;;;4.88;;
40847;SDS011;26570;50.962;5.340;2024-01-10T08:56:54;19.40;;;5.13;;
40847;SDS011;26570;50.962;5.340;2024-01-10T08:59:47;15.73;;;4.32;;
40847;SDS011;26570;50.962;5.340;2024-01-10T09:02:48;19.35;;;5.90;;
40847;SDS011;26570;50.962;5.340;2024-01-10T09:06:08;16.88;;;5.15;;
40847;SDS011;26570;50.962;5.340;2024-01-10T09:09:03;22.35;;;5.63;;
40847;SDS011;26570;50.962;5.340;2024-01-10T09:12:17;10.98;;;3.58;;
40847;SDS011;26570;50.962;5.340;2024-01-10T09:15:27;23.40;;;4.50;;
40847;SDS011;26570;50.962;5.340;2024-01-10T09:18:47;17.30;;;4.88;;
40847;SDS011;26570;50.962;5.340;2024-01-10T09:21:47;16.55;;;5.60;;
40847;SDS011;26570;50.962;5.340;2024-01-10T09:25:06;14.45;;;5.13;;
40847;SDS011;26570;50.962;5.340;2024-01-10T09:27:57;19.70;;;5.18;;
40847;SDS011;26570;50.962;5.340;2024-01-10T09:30:44;13.25;;;3.65;;
40847;SDS011;26570;50.962;5.340;2024-01-10T09:34:04;17.10;;;5.28;;
40847;SDS011;26570;50.962;5.340;2024-01-10T09:36:59;15.73;;;5.03;;
40847;SDS011;26570;50.962;5.340;2024-01-10T09:40:01;15.73;;;4.87;;
40847;SDS011;26570;50.962;5.340;2024-01-10T09:42:54;15.93;;;5.90;;
40847;SDS011;26570;50.962;5.340;2024-01-10T09:46:09;15.30;;;4.23;;
40847;SDS011;26570;50.962;5.340;2024-01-10T09:48:56;16.90;;;4.37;;
40847;SDS011;26570;50.962;5.340;2024-01-10T09:52:26;16.37;;;4.47;;
40847;SDS011;26570;50.962;5.340;2024-01-10T09:55:50;13.00;;;4.57;;
40847;SDS011;26570;50.962;5.340;2024-01-10T09:58:48;14.97;;;4.10;;
40847;SDS011;26570;50.962;5.340;2024-01-10T10:02:01;17.23;;;5.00;;
40847;SDS011;26570;50.962;5.340;2024-01-10T10:05:16;15.90;;;4.80;;
40847;SDS011;26570;50.962;5.340;2024-01-10T10:08:10;20.97;;;4.93;;
40847;SDS011;26570;50.962;5.340;2024-01-10T10:11:32;16.77;;;4.35;;
40847;SDS011;26570;50.962;5.340;2024-01-10T10:14:20;10.70;;;3.03;;
40847;SDS011;26570;50.962;5.340;2024-01-10T10:17:35;15.53;;;4.57;;
40847;SDS011;26570;50.962;5.340;2024-01-10T10:20:30;17.07;;;5.00;;
40847;SDS011;26570;50.962;5.340;2024-01-10T10:23:27;17.47;;;5.23;;
40847;SDS011;26570;50.962;5.340;2024-01-10T10:26:18;16.57;;;5.10;;
40847;SDS011;26570;50.962;5.340;2024-01-10T10:29:11;18.67;;;5.87;;
40847;SDS011;26570;50.962;5.340;2024-01-10T10:32:34;14.70;;;4.97;;
40847;SDS011;26570;50.962;5.340;2024-01-10T10:35:26;14.97;;;5.43;;
40847;SDS011;26570;50.962;5.340;2024-01-10T10:38:40;16.57;;;5.23;;
40847;SDS011;26570;50.962;5.340;2024-01-10T10:42:06;11.57;;;4.40;;
40847;SDS011;26570;50.962;5.340;2024-01-10T10:45:25;16.97;;;4.37;;
40847;SDS011;26570;50.962;5.340;2024-01-10T10:48:18;17.38;;;5.90;;
40847;SDS011;26570;50.962;5.340;2024-01-10T10:51:42;16.17;;;4.83;;
40847;SDS011;26570;50.962;5.340;2024-01-10T10:54:34;11.17;;;4.83;;
40847;SDS011;26570;50.962;5.340;2024-01-10T10:58:04;16.73;;;6.07;;
40847;SDS011;26570;50.962;5.340;2024-01-10T11:01:18;16.47;;;5.53;;
40847;SDS011;26570;50.962;5.340;2024-01-10T11:04:37;19.70;;;5.63;;
40847;SDS011;26570;50.962;5.340;2024-01-10T11:07:27;12.50;;;4.50;;
40847;SDS011;26570;50.962;5.340;2024-01-10T11:10:31;18.33;;;5.80;;
40847;SDS011;26570;50.962;5.340;2024-01-10T11:24:14;14.10;;;5.13;;
40847;SDS011;26570;50.962;5.340;2024-01-10T11:27:26;13.10;;;4.90;;
40847;SDS011;26570;50.962;5.340;2024-01-10T11:30:14;16.87;;;6.37;;
40847;SDS011;26570;50.962;5.340;2024-01-10T11:33:45;18.30;;;5.83;;
40847;SDS011;26570;50.962;5.340;2024-01-10T11:36:40;19.67;;;6.73;;
40847;SDS011;26570;50.962;5.340;2024-01-10T11:40:01;22.77;;;6.07;;
40847;SDS011;26570;50.962;5.340;2024-01-10T11:42:51;18.33;;;6.20;;
40847;SDS011;26570;50.962;5.340;2024-01-10T11:45:50;21.90;;;7.13;;
40847;SDS011;26570;50.962;5.340;2024-01-10T11:48:53;18.67;;;6.10;;
40847;SDS011;26570;50.962;5.340;2024-01-10T11:51:53;24.70;;;6.47;;
40847;SDS011;26570;50.962;5.340;2024-01-10T11:54:50;17.57;;;6.23;;
40847;SDS011;26570;50.962;5.340;2024-01-10T11:58:22;20.80;;;6.53;;
40847;SDS011;26570;50.962;5.340;2024-01-10T12:01:12;16.90;;;5.77;;
40847;SDS011;26570;50.962;5.340;2024-01-10T12:04:32;22.30;;;7.28;;
40847;SDS011;26570;50.962;5.340;2024-01-10T12:07:41;14.57;;;5.77;;
40847;SDS011;26570;50.962;5.340;2024-01-10T12:11:11;17.27;;;6.23;;
40847;SDS011;26570;50.962;5.340;2024-01-10T12:14:14;17.57;;;6.80;;
40847;SDS011;26570;50.962;5.340;2024-01-10T12:17:27;15.50;;;6.10;;
40847;SDS011;26570;50.962;5.340;2024-01-10T12:20:34;19.60;;;7.38;;
40847;SDS011;26570;50.962;5.340;2024-01-10T12:23:28;16.30;;;5.83;;
40847;SDS011;26570;50.962;5.340;2024-01-10T12:26:48;21.07;;;5.57;;
40847;SDS011;26570;50.962;5.340;2024-01-10T12:29:59;21.87;;;7.37;;
40847;SDS011;26570;50.962;5.340;2024-01-10T12:33:08;18.57;;;6.83;;
40847;SDS011;26570;50.962;5.340;2024-01-10T12:36:10;17.93;;;6.43;;
40847;SDS011;26570;50.962;5.340;2024-01-10T12:39:17;19.67;;;5.97;;
40847;SDS011;26570;50.962;5.340;2024-01-10T12:42:10;19.23;;;5.97;;
40847;SDS011;26570;50.962;5.340;2024-01-10T12:45:29;20.13;;;6.13;;
40847;SDS011;26570;50.962;5.340;2024-01-10T12:48:33;20.48;;;7.18;;
40847;SDS011;26570;50.962;5.340;2024-01-10T12:51:50;16.17;;;4.90;;
40847;SDS011;26570;50.962;5.340;2024-01-10T12:54:38;18.17;;;6.33;;
40847;SDS011;26570;50.962;5.340;2024-01-10T12:57:31;20.13;;;6.10;;
40847;SDS011;26570;50.962;5.340;2024-01-10T13:00:23;17.27;;;7.83;;
40847;SDS011;26570;50.962;5.340;2024-01-10T13:03:22;16.70;;;6.50;;
40847;SDS011;26570;50.962;5.340;2024-01-10T13:06:14;24.23;;;8.13;;
40847;SDS011;26570;50.962;5.340;2024-01-10T13:09:41;18.53;;;6.33;;
40847;SDS011;26570;50.962;5.340;2024-01-10T13:12:35;17.50;;;7.40;;
40847;SDS011;26570;50.962;5.340;2024-01-10T13:16:05;16.80;;;6.57;;
40847;SDS011;26570;50.962;5.340;2024-01-10T13:18:55;18.70;;;6.93;;
40847;SDS011;26570;50.962;5.340;2024-01-10T13:21:45;17.53;;;6.97;;
40847;SDS011;26570;50.962;5.340;2024-01-10T13:24:34;19.07;;;7.50;;
40847;SDS011;26570;50.962;5.340;2024-01-10T13:27:21;22.87;;;7.07;;
40847;SDS011;26570;50.962;5.340;2024-01-10T13:30:16;17.97;;;7.20;;
40847;SDS011;26570;50.962;5.340;2024-01-10T13:33:03;24.03;;;7.87;;
40847;SDS011;26570;50.962;5.340;2024-01-10T13:35:54;23.93;;;8.17;;
40847;SDS011;26570;50.962;5.340;2024-01-10T13:39:16;19.50;;;7.47;;
40847;SDS011;26570;50.962;5.340;2024-01-10T13:45:05;19.60;;;7.53;;
40847;SDS011;26570;50.962;5.340;2024-01-10T13:48:03;19.43;;;6.60;;
40847;SDS011;26570;50.962;5.340;2024-01-10T13:50:52;18.70;;;7.57;;
40847;SDS011;26570;50.962;5.340;2024-01-10T13:53:39;22.13;;;7.70;;
40847;SDS011;26570;50.962;5.340;2024-01-10T13:56:34;21.47;;;8.30;;
40847;SDS011;26570;50.962;5.340;2024-01-10T13:59:52;20.40;;;6.83;;
40847;SDS011;26570;50.962;5.340;2024-01-10T14:03:08;21.47;;;8.13;;
40847;SDS011;26570;50.962;5.340;2024-01-10T14:06:00;21.47;;;6.83;;
40847;SDS011;26570;50.962;5.340;2024-01-10T14:09:12;24.63;;;8.07;;
40847;SDS011;26570;50.962;5.340;2024-01-10T14:12:40;19.07;;;6.63;;
40847;SDS011;26570;50.962;5.340;2024-01-10T14:15:27;19.70;;;7.67;;
40847;SDS011;26570;50.962;5.340;2024-01-10T14:18:16;20.30;;;7.97;;
40847;SDS011;26570;50.962;5.340;2024-01-10T14:21:34;26.92;;;8.07;;
40847;SDS011;26570;50.962;5.340;2024-01-10T14:24:22;18.73;;;7.63;;
40847;SDS011;26570;50.962;5.340;2024-01-10T14:27:40;20.47;;;7.83;;
40847;SDS011;26570;50.962;5.340;2024-01-10T14:30:37;21.67;;;8.18;;
40847;SDS011;26570;50.962;5.340;2024-01-10T14:37:01;21.97;;;7.13;;
40847;SDS011;26570;50.962;5.340;2024-01-10T14:40:16;21.97;;;8.07;;
40847;SDS011;26570;50.962;5.340;2024-01-10T14:43:25;19.40;;;7.57;;
40847;SDS011;26570;50.962;5.340;2024-01-10T14:46:40;22.03;;;8.20;;
40847;SDS011;26570;50.962;5.340;2024-01-10T14:49:33;20.65;;;7.57;;
40847;SDS011;26570;50.962;5.340;2024-01-10T14:52:20;17.03;;;7.90;;
40847;SDS011;26570;50.962;5.340;2024-01-10T14:55:16;24.23;;;9.57;;
40847;SDS011;26570;50.962;5.340;2024-01-10T14:58:33;20.17;;;8.30;;
40847;SDS011;26570;50.962;5.340;2024-01-10T15:01:56;20.90;;;9.13;;
40847;SDS011;26570;50.962;5.340;2024-01-10T15:05:31;24.43;;;8.67;;
40847;SDS011;26570;50.962;5.340;2024-01-10T15:08:19;28.87;;;8.50;;
40847;SDS011;26570;50.962;5.340;2024-01-10T15:11:11;22.87;;;8.47;;
40847;SDS011;26570;50.962;5.340;2024-01-10T15:14:06;27.17;;;9.70;;
40847;SDS011;26570;50.962;5.340;2024-01-10T15:17:19;22.13;;;9.20;;
40847;SDS011;26570;50.962;5.340;2024-01-10T15:20:38;20.20;;;8.87;;
40847;SDS011;26570;50.962;5.340;2024-01-10T15:23:33;25.53;;;8.33;;
40847;SDS011;26570;50.962;5.340;2024-01-10T15:26:20;23.83;;;8.83;;
40847;SDS011;26570;50.962;5.340;2024-01-10T15:29:31;23.73;;;7.30;;
40847;SDS011;26570;50.962;5.340;2024-01-10T15:32:19;23.50;;;8.33;;
40847;SDS011;26570;50.962;5.340;2024-01-10T15:35:12;24.30;;;8.33;;
40847;SDS011;26570;50.962;5.340;2024-01-10T15:38:32;21.30;;;9.10;;
40847;SDS011;26570;50.962;5.340;2024-01-10T15:41:44;25.73;;;9.03;;
40847;SDS011;26570;50.962;5.340;2024-01-10T15:44:41;25.30;;;9.97;;
40847;SDS011;26570;50.962;5.340;2024-01-10T15:47:31;24.70;;;8.70;;
40847;SDS011;26570;50.962;5.340;2024-01-10T15:50:50;29.80;;;9.90;;
40847;SDS011;26570;50.962;5.340;2024-01-10T15:53:42;26.10;;;8.23;;
40847;SDS011;26570;50.962;5.340;2024-01-10T15:56:29;21.93;;;9.43;;
40847;SDS011;26570;50.962;5.340;2024-01-10T15:59:18;34.53;;;8.83;;
40847;SDS011;26570;50.962;5.340;2024-01-10T16:02:36;25.73;;;8.90;;
40847;SDS011;26570;50.962;5.340;2024-01-10T16:05:48;25.60;;;10.10;;
40847;SDS011;26570;50.962;5.340;2024-01-10T16:09:14;26.97;;;10.50;;
40847;SDS011;26570;50.962;5.340;2024-01-10T16:12:01;30.30;;;9.83;;
40847;SDS011;26570;50.962;5.340;2024-01-10T16:15:10;19.30;;;8.03;;
40847;SDS011;26570;50.962;5.340;2024-01-10T16:18:09;30.30;;;9.97;;
40847;SDS011;26570;50.962;5.340;2024-01-10T16:45:15;30.77;;;10.20;;
40847;SDS011;26570;50.962;5.340;2024-01-10T16:48:25;21.83;;;9.17;;
40847;SDS011;26570;50.962;5.340;2024-01-10T16:51:10;23.73;;;9.10;;
40847;SDS011;26570;50.962;5.340;2024-01-10T16:54:21;32.10;;;10.30;;
40847;SDS011;26570;50.962;5.340;2024-01-10T16:57:09;23.37;;;9.70;;
40847;SDS011;26570;50.962;5.340;2024-01-10T16:59:54;29.77;;;10.80;;
40847;SDS011;26570;50.962;5.340;2024-01-10T17:03:21;27.38;;;10.35;;
40847;SDS011;26570;50.962;5.340;2024-01-10T17:06:08;28.80;;;10.93;;
40847;SDS011;26570;50.962;5.340;2024-01-10T17:08:54;41.13;;;11.87;;
40847;SDS011;26570;50.962;5.340;2024-01-10T17:11:39;39.23;;;11.53;;
40847;SDS011;26570;50.962;5.340;2024-01-10T17:14:47;36.03;;;12.43;;
40847;SDS011;26570;50.962;5.340;2024-01-10T17:17:35;36.10;;;11.80;;
40847;SDS011;26570;50.962;5.340;2024-01-10T17:20:20;36.40;;;11.57;;
40847;SDS011;26570;50.962;5.340;2024-01-10T17:23:25;30.93;;;11.13;;
40847;SDS011;26570;50.962;5.340;2024-01-10T17:26:54;26.10;;;10.17;;
40847;SDS011;26570;50.962;5.340;2024-01-10T17:30:02;28.60;;;10.43;;
40847;SDS011;26570;50.962;5.340;2024-01-10T17:33:08;32.97;;;10.60;;
40847;SDS011;26570;50.962;5.340;2024-01-10T17:36:19;32.07;;;11.30;;
40847;SDS011;26570;50.962;5.340;2024-01-10T17:39:07;31.17;;;11.03;;
40847;SDS011;26570;50.962;5.340;2024-01-10T17:41:53;33.80;;;11.70;;
40847;SDS011;26570;50.962;5.340;2024-01-10T17:45:02;36.87;;;10.27;;
40847;SDS011;26570;50.962;5.340;2024-01-10T17:48:16;35.43;;;11.67;;
40847;SDS011;26570;50.962;5.340;2024-01-10T17:51:50;34.92;;;12.05;;
40847;SDS011;26570;50.962;5.340;2024-01-10T17:55:15;33.80;;;10.57;;
40847;SDS011;26570;50.962;5.340;2024-01-10T17:58:28;30.80;;;9.87;;
40847;SDS011;26570;50.962;5.340;2024-01-10T18:01:37;28.57;;;11.10;;
40847;SDS011;26570;50.962;5.340;2024-01-10T18:04:57;34.30;;;11.30;;
40847;SDS011;26570;50.962;5.340;2024-01-10T18:07:50;33.55;;;11.43;;
40847;SDS011;26570;50.962;5.340;2024-01-10T18:10:58;30.17;;;10.53;;
40847;SDS011;26570;50.962;5.340;2024-01-10T18:14:09;30.97;;;10.13;;
40847;SDS011;26570;50.962;5.340;2024-01-10T18:16:57;28.07;;;11.00;;
40847;SDS011;26570;50.962;5.340;2024-01-10T18:20:04;30.20;;;11.23;;
40847;SDS011;26570;50.962;5.340;2024-01-10T18:22:53;33.53;;;12.57;;
40847;SDS011;26570;50.962;5.340;2024-01-10T18:26:00;30.50;;;11.77;;
40847;SDS011;26570;50.962;5.340;2024-01-10T18:28:48;34.20;;;12.47;;
40847;SDS011;26570;50.962;5.340;2024-01-10T18:31:36;29.73;;;11.20;;
40847;SDS011;26570;50.962;5.340;2024-01-10T18:34:46;35.63;;;11.57;;
40847;SDS011;26570;50.962;5.340;2024-01-10T18:38:02;38.53;;;12.60;;
40847;SDS011;26570;50.962;5.340;2024-01-10T18:40:51;34.33;;;12.67;;
40847;SDS011;26570;50.962;5.340;2024-01-10T18:44:06;36.53;;;12.43;;
40847;SDS011;26570;50.962;5.340;2024-01-10T18:47:17;33.53;;;12.20;;
40847;SDS011;26570;50.962;5.340;2024-01-10T18:50:03;35.63;;;13.30;;
40847;SDS011;26570;50.962;5.340;2024-01-10T18:52:57;36.23;;;11.80;;
40847;SDS011;26570;50.962;5.340;2024-01-10T18:55:46;43.10;;;13.43;;
40847;SDS011;26570;50.962;5.340;2024-01-10T18:58:34;35.67;;;13.00;;
40847;SDS011;26570;50.962;5.340;2024-01-10T19:01:22;37.77;;;13.40;;
40847;SDS011;26570;50.962;5.340;2024-01-10T19:04:14;36.30;;;13.67;;
40847;SDS011;26570;50.962;5.340;2024-01-10T19:07:23;32.40;;;12.77;;